sensor_id;sensor_type;location;lat;lon;timestamp;pressure;altitude;pressure_sealevel;temperature;humidity
60611;BME280;46439;51.164;13.572;2023-02-26T00:01:33;99518.30;;;0.21;85.91
60611;BME280;46439;51.164;13.572;2023-02-26T00:04:03;99515.73;;;0.20;85.83
60611;BME280;46439;51.164;13.572;2023-02-26T00:06:35;99522.96;;;0.23;85.75
60611;BME280;46439;51.164;13.572;2023-02-26T00:09:06;99528.92;;;0.23;85.98
60611;BME280;46439;51.164;13.572;2023-02-26T00:11:35;99527.88;;;0.23;85.98
60611;BME280;46439;51.164;13.572;2023-02-26T00:14:04;99533.15;;;0.21;86.03
60611;BME280;46439;51.164;13.572;2023-02-26T00:16:35;99534.09;;;0.18;85.92
60611;BME280;46439;51.164;13.572;2023-02-26T00:19:07;99537.65;;;0.20;86.04
60611;BME280;46439;51.164;13.572;2023-02-26T00:21:43;99540.27;;;0.18;85.85
60611;BME280;46439;51.164;13.572;2023-02-26T00:24:11;99545.60;;;0.18;85.96
60611;BME280;46439;51.164;13.572;2023-02-26T00:26:40;99548.66;;;0.20;85.97
60611;BME280;46439;51.164;13.572;2023-02-26T00:29:10;99548.13;;;0.24;86.06
60611;BME280;46439;51.164;13.572;2023-02-26T00:31:40;99555.25;;;0.28;86.05
60611;BME280;46439;51.164;13.572;2023-02-26T00:34:12;99559.82;;;0.31;86.14
60611;BME280;46439;51.164;13.572;2023-02-26T00:36:43;99560.19;;;0.31;86.30
60611;BME280;46439;51.164;13.572;2023-02-26T00:39:26;99563.52;;;0.35;86.28
60611;BME280;46439;51.164;13.572;2023-02-26T00:42:01;99566.23;;;0.36;86.37
60611;BME280;46439;51.164;13.572;2023-02-26T00:44:31;99563.70;;;0.37;86.33
60611;BME280;46439;51.164;13.572;2023-02-26T00:47:05;99566.45;;;0.36;86.25
60611;BME280;46439;51.164;13.572;2023-02-26T00:49:46;99566.28;;;0.36;86.35
60611;BME280;46439;51.164;13.572;2023-02-26T00:52:22;99571.48;;;0.35;86.37
60611;BME280;46439;51.164;13.572;2023-02-26T00:54:55;99572.55;;;0.35;86.16
60611;BME280;46439;51.164;13.572;2023-02-26T00:57:23;99574.06;;;0.36;85.98
60611;BME280;46439;51.164;13.572;2023-02-26T00:59:51;99571.70;;;0.35;86.50
60611;BME280;46439;51.164;13.572;2023-02-26T01:02:20;99572.05;;;0.35;86.18
60611;BME280;46439;51.164;13.572;2023-02-26T01:04:51;99573.39;;;0.34;86.11
60611;BME280;46439;51.164;13.572;2023-02-26T01:07:21;99574.89;;;0.33;86.01
60611;BME280;46439;51.164;13.572;2023-02-26T01:09:50;99574.52;;;0.32;86.14
60611;BME280;46439;51.164;13.572;2023-02-26T01:12:20;99578.56;;;0.35;86.20
60611;BME280;46439;51.164;13.572;2023-02-26T01:14:50;99575.70;;;0.31;86.17
60611;BME280;46439;51.164;13.572;2023-02-26T01:17:24;99573.23;;;0.33;86.11
60611;BME280;46439;51.164;13.572;2023-02-26T01:20:02;99579.15;;;0.37;86.06
60611;BME280;46439;51.164;13.572;2023-02-26T01:22:36;99578.10;;;0.36;86.26
60611;BME280;46439;51.164;13.572;2023-02-26T01:25:09;99581.44;;;0.32;86.07
60611;BME280;46439;51.164;13.572;2023-02-26T01:27:39;99584.55;;;0.29;85.98
60611;BME280;46439;51.164;13.572;2023-02-26T01:30:10;99588.59;;;0.27;86.05
60611;BME280;46439;51.164;13.572;2023-02-26T01:32:45;99588.38;;;0.28;86.16
60611;BME280;46439;51.164;13.572;2023-02-26T01:35:22;99594.84;;;0.31;86.05
60611;BME280;46439;51.164;13.572;2023-02-26T01:38:03;99591.30;;;0.35;86.03
60611;BME280;46439;51.164;13.572;2023-02-26T01:41:14;99588.39;;;0.36;86.36
60611;BME280;46439;51.164;13.572;2023-02-26T01:43:52;99591.89;;;0.34;85.95
60611;BME280;46439;51.164;13.572;2023-02-26T01:46:31;99589.80;;;0.34;86.20
60611;BME280;46439;51.164;13.572;2023-02-26T01:49:03;99595.41;;;0.35;85.83
60611;BME280;46439;51.164;13.572;2023-02-26T01:51:44;99602.50;;;0.35;86.24
60611;BME280;46439;51.164;13.572;2023-02-26T01:54:14;99608.07;;;0.34;85.96
60611;BME280;46439;51.164;13.572;2023-02-26T01:56:44;99612.25;;;0.34;85.96
60611;BME280;46439;51.164;13.572;2023-02-26T01:59:15;99617.15;;;0.35;86.15
60611;BME280;46439;51.164;13.572;2023-02-26T02:01:53;99621.66;;;0.34;86.24
60611;BME280;46439;51.164;13.572;2023-02-26T02:04:23;99622.52;;;0.39;86.43
60611;BME280;46439;51.164;13.572;2023-02-26T02:06:52;99625.02;;;0.43;86.56
60611;BME280;46439;51.164;13.572;2023-02-26T02:09:21;99626.73;;;0.42;86.34
60611;BME280;46439;51.164;13.572;2023-02-26T02:12:03;99626.29;;;0.43;86.25
60611;BME280;46439;51.164;13.572;2023-02-26T02:14:45;99629.93;;;0.46;86.46
60611;BME280;46439;51.164;13.572;2023-02-26T02:17:26;99633.09;;;0.44;86.39
60611;BME280;46439;51.164;13.572;2023-02-26T02:23:28;99644.17;;;0.47;86.34
60611;BME280;46439;51.164;13.572;2023-02-26T02:32:14;99649.15;;;0.60;86.47
60611;BME280;46439;51.164;13.572;2023-02-26T02:34:48;99652.05;;;0.60;86.48
60611;BME280;46439;51.164;13.572;2023-02-26T02:37:21;99647.98;;;0.57;86.84
60611;BME280;46439;51.164;13.572;2023-02-26T02:39:55;99655.45;;;0.61;86.74
60611;BME280;46439;51.164;13.572;2023-02-26T02:42:29;99657.27;;;0.59;86.51
60611;BME280;46439;51.164;13.572;2023-02-26T02:45:02;99660.95;;;0.63;86.75
60611;BME280;46439;51.164;13.572;2023-02-26T02:47:35;99668.06;;;0.68;86.53
60611;BME280;46439;51.164;13.572;2023-02-26T02:50:09;99669.73;;;0.62;86.50
60611;BME280;46439;51.164;13.572;2023-02-26T02:52:43;99676.36;;;0.62;86.40
60611;BME280;46439;51.164;13.572;2023-02-26T02:55:17;99681.59;;;0.58;86.37
60611;BME280;46439;51.164;13.572;2023-02-26T02:57:51;99686.59;;;0.52;86.51
60611;BME280;46439;51.164;13.572;2023-02-26T03:00:22;99690.81;;;0.53;86.33
60611;BME280;46439;51.164;13.572;2023-02-26T03:02:55;99693.56;;;0.47;86.19
60611;BME280;46439;51.164;13.572;2023-02-26T03:05:26;99698.32;;;0.45;86.16
60611;BME280;46439;51.164;13.572;2023-02-26T03:07:58;99702.31;;;0.42;86.07
60611;BME280;46439;51.164;13.572;2023-02-26T03:10:29;99706.09;;;0.45;86.37
60611;BME280;46439;51.164;13.572;2023-02-26T03:12:58;99712.33;;;0.49;86.34
60611;BME280;46439;51.164;13.572;2023-02-26T03:15:34;99713.47;;;0.53;85.99
60611;BME280;46439;51.164;13.572;2023-02-26T03:18:14;99715.67;;;0.59;86.70
60611;BME280;46439;51.164;13.572;2023-02-26T03:20:54;99720.92;;;0.60;86.67
60611;BME280;46439;51.164;13.572;2023-02-26T03:23:32;99724.41;;;0.56;86.53
60611;BME280;46439;51.164;13.572;2023-02-26T03:26:06;99725.10;;;0.51;86.57
60611;BME280;46439;51.164;13.572;2023-02-26T03:28:42;99727.30;;;0.55;86.21
60611;BME280;46439;51.164;13.572;2023-02-26T03:31:16;99730.90;;;0.59;86.45
60611;BME280;46439;51.164;13.572;2023-02-26T03:33:51;99734.54;;;0.64;86.68
60611;BME280;46439;51.164;13.572;2023-02-26T03:36:27;99743.21;;;0.65;86.63
60611;BME280;46439;51.164;13.572;2023-02-26T03:39:00;99745.64;;;0.58;86.34
60611;BME280;46439;51.164;13.572;2023-02-26T03:41:33;99749.53;;;0.51;86.32
60611;BME280;46439;51.164;13.572;2023-02-26T03:44:10;99755.43;;;0.49;86.21
60611;BME280;46439;51.164;13.572;2023-02-26T03:46:43;99761.39;;;0.38;86.13
60611;BME280;46439;51.164;13.572;2023-02-26T03:49:16;99766.61;;;0.37;86.01
60611;BME280;46439;51.164;13.572;2023-02-26T03:51:47;99775.08;;;0.33;85.98
60611;BME280;46439;51.164;13.572;2023-02-26T03:54:21;99780.71;;;0.30;85.84
60611;BME280;46439;51.164;13.572;2023-02-26T03:56:50;99782.81;;;0.31;85.68
60611;BME280;46439;51.164;13.572;2023-02-26T03:59:19;99788.20;;;0.30;85.90
60611;BME280;46439;51.164;13.572;2023-02-26T04:01:52;99793.21;;;0.27;85.97
60611;BME280;46439;51.164;13.572;2023-02-26T04:04:25;99797.61;;;0.27;85.70
60611;BME280;46439;51.164;13.572;2023-02-26T04:06:55;99800.67;;;0.29;85.82
60611;BME280;46439;51.164;13.572;2023-02-26T04:09:24;99799.73;;;0.30;86.08
60611;BME280;46439;51.164;13.572;2023-02-26T04:11:54;99803.79;;;0.27;86.25
60611;BME280;46439;51.164;13.572;2023-02-26T04:14:23;99809.75;;;0.28;85.90
60611;BME280;46439;51.164;13.572;2023-02-26T04:16:52;99815.66;;;0.30;86.16
60611;BME280;46439;51.164;13.572;2023-02-26T04:19:21;99816.14;;;0.26;86.09
60611;BME280;46439;51.164;13.572;2023-02-26T04:21:49;99820.42;;;0.23;85.87
60611;BME280;46439;51.164;13.572;2023-02-26T04:24:18;99822.59;;;0.17;85.76
60611;BME280;46439;51.164;13.572;2023-02-26T04:26:47;99822.96;;;0.17;85.86
60611;BME280;46439;51.164;13.572;2023-02-26T04:29:15;99825.64;;;0.22;85.91
60611;BME280;46439;51.164;13.572;2023-02-26T04:31:44;99828.77;;;0.27;86.00
60611;BME280;46439;51.164;13.572;2023-02-26T04:34:12;99832.96;;;0.28;86.05
60611;BME280;46439;51.164;13.572;2023-02-26T04:36:41;99833.17;;;0.36;86.35
60611;BME280;46439;51.164;13.572;2023-02-26T04:39:10;99839.05;;;0.43;86.53
60611;BME280;46439;51.164;13.572;2023-02-26T04:41:38;99841.31;;;0.53;86.74
60611;BME280;46439;51.164;13.572;2023-02-26T04:44:07;99843.27;;;0.57;86.82
60611;BME280;46439;51.164;13.572;2023-02-26T04:46:35;99849.59;;;0.63;86.78
60611;BME280;46439;51.164;13.572;2023-02-26T04:49:04;99850.15;;;0.63;86.80
60611;BME280;46439;51.164;13.572;2023-02-26T04:51:32;99856.89;;;0.67;86.95
60611;BME280;46439;51.164;13.572;2023-02-26T04:54:01;99854.92;;;0.67;86.84
60611;BME280;46439;51.164;13.572;2023-02-26T04:56:29;99858.20;;;0.69;86.94
60611;BME280;46439;51.164;13.572;2023-02-26T04:58:59;99860.97;;;0.63;86.92
60611;BME280;46439;51.164;13.572;2023-02-26T05:01:28;99860.81;;;0.57;86.72
60611;BME280;46439;51.164;13.572;2023-02-26T05:03:56;99863.16;;;0.62;86.67
60611;BME280;46439;51.164;13.572;2023-02-26T05:06:25;99872.52;;;0.66;86.79
60611;BME280;46439;51.164;13.572;2023-02-26T05:08:53;99868.20;;;0.70;86.66
60611;BME280;46439;51.164;13.572;2023-02-26T05:11:22;99872.41;;;0.70;87.02
60611;BME280;46439;51.164;13.572;2023-02-26T05:13:50;99875.10;;;0.75;86.61
60611;BME280;46439;51.164;13.572;2023-02-26T05:16:19;99879.80;;;0.81;86.95
60611;BME280;46439;51.164;13.572;2023-02-26T05:18:47;99885.30;;;0.83;87.11
60611;BME280;46439;51.164;13.572;2023-02-26T05:21:16;99888.13;;;0.83;87.01
60611;BME280;46439;51.164;13.572;2023-02-26T05:23:44;99893.67;;;0.73;86.51
60611;BME280;46439;51.164;13.572;2023-02-26T05:26:12;99894.31;;;0.71;86.43
60611;BME280;46439;51.164;13.572;2023-02-26T05:28:41;99897.55;;;0.66;86.59
60611;BME280;46439;51.164;13.572;2023-02-26T05:31:13;99902.03;;;0.67;86.61
60611;BME280;46439;51.164;13.572;2023-02-26T05:33:42;99902.98;;;0.65;86.59
60611;BME280;46439;51.164;13.572;2023-02-26T05:36:12;99908.73;;;0.63;86.61
60611;BME280;46439;51.164;13.572;2023-02-26T05:38:40;99914.48;;;0.64;86.44
60611;BME280;46439;51.164;13.572;2023-02-26T05:41:08;99917.45;;;0.63;86.59
60611;BME280;46439;51.164;13.572;2023-02-26T05:43:37;99914.88;;;0.66;86.69
60611;BME280;46439;51.164;13.572;2023-02-26T05:46:07;99920.48;;;0.72;86.96
60611;BME280;46439;51.164;13.572;2023-02-26T05:48:35;99927.16;;;0.75;86.77
60611;BME280;46439;51.164;13.572;2023-02-26T05:51:04;99928.61;;;0.84;86.96
60611;BME280;46439;51.164;13.572;2023-02-26T05:53:33;99932.73;;;0.90;87.12
60611;BME280;46439;51.164;13.572;2023-02-26T05:56:01;99937.83;;;0.91;87.18
60611;BME280;46439;51.164;13.572;2023-02-26T05:58:30;99946.30;;;0.91;87.46
60611;BME280;46439;51.164;13.572;2023-02-26T06:01:01;99949.73;;;0.85;86.91
60611;BME280;46439;51.164;13.572;2023-02-26T06:03:29;99955.38;;;0.86;87.11
60611;BME280;46439;51.164;13.572;2023-02-26T06:05:58;99957.83;;;0.86;87.01
60611;BME280;46439;51.164;13.572;2023-02-26T06:08:26;99969.23;;;0.90;87.07
60611;BME280;46439;51.164;13.572;2023-02-26T06:10:55;99971.58;;;0.99;86.97
60611;BME280;46439;51.164;13.572;2023-02-26T06:13:24;99978.45;;;1.04;87.46
60611;BME280;46439;51.164;13.572;2023-02-26T06:15:52;99982.05;;;1.03;87.40
60611;BME280;46439;51.164;13.572;2023-02-26T06:18:21;99985.72;;;1.04;87.50
60611;BME280;46439;51.164;13.572;2023-02-26T06:20:49;99987.45;;;1.07;87.28
60611;BME280;46439;51.164;13.572;2023-02-26T06:23:18;99989.80;;;1.09;87.44
60611;BME280;46439;51.164;13.572;2023-02-26T06:25:48;99995.45;;;1.13;87.60
60611;BME280;46439;51.164;13.572;2023-02-26T06:28:17;100001.19;;;1.10;87.31
60611;BME280;46439;51.164;13.572;2023-02-26T06:30:45;100001.33;;;1.09;87.36
60611;BME280;46439;51.164;13.572;2023-02-26T06:33:14;100004.96;;;1.05;87.15
60611;BME280;46439;51.164;13.572;2023-02-26T06:35:42;100011.56;;;1.00;87.03
60611;BME280;46439;51.164;13.572;2023-02-26T06:38:11;100014.52;;;0.91;86.85
60611;BME280;46439;51.164;13.572;2023-02-26T06:40:40;100023.84;;;0.82;86.54
60611;BME280;46439;51.164;13.572;2023-02-26T06:43:09;100028.51;;;0.74;86.61
60611;BME280;46439;51.164;13.572;2023-02-26T06:45:38;100030.06;;;0.73;86.60
60611;BME280;46439;51.164;13.572;2023-02-26T06:48:06;100034.64;;;0.70;86.32
60611;BME280;46439;51.164;13.572;2023-02-26T06:50:35;100037.58;;;0.67;86.66
60611;BME280;46439;51.164;13.572;2023-02-26T06:53:03;100045.07;;;0.68;86.24
60611;BME280;46439;51.164;13.572;2023-02-26T06:55:32;100047.88;;;0.71;86.44
60611;BME280;46439;51.164;13.572;2023-02-26T06:58:01;100054.10;;;0.78;86.60
60611;BME280;46439;51.164;13.572;2023-02-26T07:00:29;100059.67;;;0.77;86.65
60611;BME280;46439;51.164;13.572;2023-02-26T07:02:57;100060.14;;;0.78;86.60
60611;BME280;46439;51.164;13.572;2023-02-26T07:05:26;100064.09;;;0.82;86.71
60611;BME280;46439;51.164;13.572;2023-02-26T07:07:54;100070.03;;;0.85;86.73
60611;BME280;46439;51.164;13.572;2023-02-26T07:10:23;100072.71;;;0.85;87.04
60611;BME280;46439;51.164;13.572;2023-02-26T07:12:52;100076.58;;;0.88;86.70
60611;BME280;46439;51.164;13.572;2023-02-26T07:15:20;100079.17;;;0.91;86.72
60611;BME280;46439;51.164;13.572;2023-02-26T07:17:49;100082.55;;;0.91;87.10
60611;BME280;46439;51.164;13.572;2023-02-26T07:20:18;100084.56;;;0.92;87.01
60611;BME280;46439;51.164;13.572;2023-02-26T07:22:47;100085.99;;;0.95;86.96
60611;BME280;46439;51.164;13.572;2023-02-26T07:25:15;100089.86;;;1.00;87.15
60611;BME280;46439;51.164;13.572;2023-02-26T07:27:44;100090.36;;;1.03;87.37
60611;BME280;46439;51.164;13.572;2023-02-26T07:30:14;100095.64;;;1.06;87.49
60611;BME280;46439;51.164;13.572;2023-02-26T07:32:43;100099.08;;;1.05;87.30
60611;BME280;46439;51.164;13.572;2023-02-26T07:35:12;100101.58;;;1.05;87.13
60611;BME280;46439;51.164;13.572;2023-02-26T07:37:40;100100.98;;;1.08;87.23
60611;BME280;46439;51.164;13.572;2023-02-26T07:40:10;100104.33;;;1.08;87.09
60611;BME280;46439;51.164;13.572;2023-02-26T07:42:39;100108.12;;;1.12;87.04
60611;BME280;46439;51.164;13.572;2023-02-26T07:45:09;100114.44;;;1.13;87.17
60611;BME280;46439;51.164;13.572;2023-02-26T07:47:37;100119.42;;;1.17;87.29
60611;BME280;46439;51.164;13.572;2023-02-26T07:50:08;100125.49;;;1.19;87.28
60611;BME280;46439;51.164;13.572;2023-02-26T07:52:36;100126.63;;;1.18;87.36
60611;BME280;46439;51.164;13.572;2023-02-26T07:55:06;100134.41;;;1.19;87.29
60611;BME280;46439;51.164;13.572;2023-02-26T07:57:34;100137.67;;;1.22;87.43
60611;BME280;46439;51.164;13.572;2023-02-26T08:00:04;100143.16;;;1.25;87.34
60611;BME280;46439;51.164;13.572;2023-02-26T08:02:33;100142.02;;;1.21;86.90
60611;BME280;46439;51.164;13.572;2023-02-26T08:05:02;100148.64;;;1.18;87.15
60611;BME280;46439;51.164;13.572;2023-02-26T08:07:30;100157.48;;;1.15;86.89
60611;BME280;46439;51.164;13.572;2023-02-26T08:09:59;100157.15;;;1.18;87.01
60611;BME280;46439;51.164;13.572;2023-02-26T08:12:28;100162.39;;;1.21;87.21
60611;BME280;46439;51.164;13.572;2023-02-26T08:14:57;100164.71;;;1.30;87.24
60611;BME280;46439;51.164;13.572;2023-02-26T08:17:25;100169.21;;;1.37;87.18
60611;BME280;46439;51.164;13.572;2023-02-26T08:19:54;100169.58;;;1.39;87.64
60611;BME280;46439;51.164;13.572;2023-02-26T08:22:22;100168.71;;;1.44;87.41
60611;BME280;46439;51.164;13.572;2023-02-26T08:24:51;100169.67;;;1.49;87.31
60611;BME280;46439;51.164;13.572;2023-02-26T08:27:19;100173.52;;;1.55;87.68
60611;BME280;46439;51.164;13.572;2023-02-26T08:29:48;100181.62;;;1.56;87.59
60611;BME280;46439;51.164;13.572;2023-02-26T08:32:18;100184.56;;;1.54;87.27
60611;BME280;46439;51.164;13.572;2023-02-26T08:34:47;100190.58;;;1.57;87.26
60611;BME280;46439;51.164;13.572;2023-02-26T08:37:15;100190.54;;;1.60;87.46
60611;BME280;46439;51.164;13.572;2023-02-26T08:39:44;100194.65;;;1.60;87.29
60611;BME280;46439;51.164;13.572;2023-02-26T08:42:12;100202.64;;;1.64;87.37
60611;BME280;46439;51.164;13.572;2023-02-26T08:44:43;100202.94;;;1.72;87.32
60611;BME280;46439;51.164;13.572;2023-02-26T08:47:12;100209.85;;;1.77;87.51
60611;BME280;46439;51.164;13.572;2023-02-26T08:49:41;100207.80;;;1.78;87.57
60611;BME280;46439;51.164;13.572;2023-02-26T08:52:09;100215.02;;;1.79;87.64
60611;BME280;46439;51.164;13.572;2023-02-26T08:54:38;100220.80;;;1.75;87.52
60611;BME280;46439;51.164;13.572;2023-02-26T08:57:07;100222.23;;;1.66;87.20
60611;BME280;46439;51.164;13.572;2023-02-26T08:59:35;100228.13;;;1.60;87.02
60611;BME280;46439;51.164;13.572;2023-02-26T09:02:04;100235.17;;;1.61;86.87
60611;BME280;46439;51.164;13.572;2023-02-26T09:04:32;100234.38;;;1.69;86.94
60611;BME280;46439;51.164;13.572;2023-02-26T09:07:00;100239.33;;;1.71;86.99
60611;BME280;46439;51.164;13.572;2023-02-26T09:09:29;100242.47;;;1.70;86.92
60611;BME280;46439;51.164;13.572;2023-02-26T09:11:57;100246.53;;;1.70;87.29
60611;BME280;46439;51.164;13.572;2023-02-26T09:14:26;100252.31;;;1.79;86.97
60611;BME280;46439;51.164;13.572;2023-02-26T09:16:55;100252.76;;;1.82;87.43
60611;BME280;46439;51.164;13.572;2023-02-26T09:19:23;100259.54;;;1.86;87.14
60611;BME280;46439;51.164;13.572;2023-02-26T09:21:52;100262.27;;;1.83;87.58
60611;BME280;46439;51.164;13.572;2023-02-26T09:24:20;100266.73;;;1.76;86.93
60611;BME280;46439;51.164;13.572;2023-02-26T09:26:49;100271.20;;;1.72;86.77
60611;BME280;46439;51.164;13.572;2023-02-26T09:29:17;100273.63;;;1.76;86.95
60611;BME280;46439;51.164;13.572;2023-02-26T09:31:46;100282.60;;;1.72;86.94
60611;BME280;46439;51.164;13.572;2023-02-26T09:34:14;100282.55;;;1.63;86.80
60611;BME280;46439;51.164;13.572;2023-02-26T09:36:43;100290.25;;;1.60;86.77
60611;BME280;46439;51.164;13.572;2023-02-26T09:39:13;100289.14;;;1.56;86.77
60611;BME280;46439;51.164;13.572;2023-02-26T09:41:45;100294.94;;;1.54;86.50
60611;BME280;46439;51.164;13.572;2023-02-26T09:44:19;100298.95;;;1.57;86.53
60611;BME280;46439;51.164;13.572;2023-02-26T09:46:58;100298.29;;;1.61;86.83
60611;BME280;46439;51.164;13.572;2023-02-26T09:49:37;100304.95;;;1.67;86.83
60611;BME280;46439;51.164;13.572;2023-02-26T09:52:17;100304.70;;;1.76;86.77
60611;BME280;46439;51.164;13.572;2023-02-26T09:54:50;100307.64;;;1.84;87.30
60611;BME280;46439;51.164;13.572;2023-02-26T09:57:28;100309.05;;;1.86;87.06
60611;BME280;46439;51.164;13.572;2023-02-26T09:59:58;100311.27;;;1.85;87.03
60611;BME280;46439;51.164;13.572;2023-02-26T10:02:38;100310.41;;;1.85;86.89
60611;BME280;46439;51.164;13.572;2023-02-26T10:05:23;100311.14;;;1.97;87.26
60611;BME280;46439;51.164;13.572;2023-02-26T10:07:58;100314.55;;;1.96;86.88
60611;BME280;46439;51.164;13.572;2023-02-26T10:10:34;100315.01;;;1.99;86.86
60611;BME280;46439;51.164;13.572;2023-02-26T10:13:06;100319.86;;;1.98;87.14
60611;BME280;46439;51.164;13.572;2023-02-26T10:15:43;100320.57;;;2.06;87.47
60611;BME280;46439;51.164;13.572;2023-02-26T10:18:15;100321.38;;;2.14;87.15
60611;BME280;46439;51.164;13.572;2023-02-26T10:20:51;100328.19;;;2.13;87.04
60611;BME280;46439;51.164;13.572;2023-02-26T10:23:25;100333.76;;;2.12;87.00
60611;BME280;46439;51.164;13.572;2023-02-26T10:26:01;100337.36;;;2.06;87.15
60611;BME280;46439;51.164;13.572;2023-02-26T10:28:40;100345.96;;;2.08;87.09
60611;BME280;46439;51.164;13.572;2023-02-26T10:31:16;100346.64;;;2.11;87.23
60611;BME280;46439;51.164;13.572;2023-02-26T10:33:55;100352.08;;;2.05;86.77
60611;BME280;46439;51.164;13.572;2023-02-26T10:36:28;100358.70;;;2.04;87.11
60611;BME280;46439;51.164;13.572;2023-02-26T10:39:03;100363.56;;;2.03;86.88
60611;BME280;46439;51.164;13.572;2023-02-26T10:41:36;100363.30;;;1.97;87.08
60611;BME280;46439;51.164;13.572;2023-02-26T10:44:11;100365.33;;;1.91;86.83
60611;BME280;46439;51.164;13.572;2023-02-26T10:46:47;100366.59;;;1.86;86.81
60611;BME280;46439;51.164;13.572;2023-02-26T10:49:41;100370.41;;;1.82;86.63
60611;BME280;46439;51.164;13.572;2023-02-26T10:52:16;100371.22;;;1.85;86.65
60611;BME280;46439;51.164;13.572;2023-02-26T10:54:53;100372.23;;;1.84;86.61
60611;BME280;46439;51.164;13.572;2023-02-26T10:57:29;100372.91;;;1.84;86.60
60611;BME280;46439;51.164;13.572;2023-02-26T11:00:01;100374.94;;;1.88;86.79
60611;BME280;46439;51.164;13.572;2023-02-26T11:02:38;100370.13;;;1.93;86.93
60611;BME280;46439;51.164;13.572;2023-02-26T11:05:14;100375.91;;;2.02;87.14
60611;BME280;46439;51.164;13.572;2023-02-26T11:07:45;100374.18;;;2.18;87.22
60611;BME280;46439;51.164;13.572;2023-02-26T11:10:19;100377.36;;;2.25;87.25
60611;BME280;46439;51.164;13.572;2023-02-26T11:12:49;100379.57;;;2.29;87.29
60611;BME280;46439;51.164;13.572;2023-02-26T11:15:21;100378.66;;;2.27;87.43
60611;BME280;46439;51.164;13.572;2023-02-26T11:17:55;100382.58;;;2.22;86.98
60611;BME280;46439;51.164;13.572;2023-02-26T11:20:32;100383.54;;;2.23;87.41
60611;BME280;46439;51.164;13.572;2023-02-26T11:23:03;100386.05;;;2.28;87.46
60611;BME280;46439;51.164;13.572;2023-02-26T11:25:33;100382.11;;;2.42;87.09
60611;BME280;46439;51.164;13.572;2023-02-26T11:28:04;100380.20;;;2.58;87.61
60611;BME280;46439;51.164;13.572;2023-02-26T11:30:37;100382.76;;;2.69;87.86
60611;BME280;46439;51.164;13.572;2023-02-26T11:33:05;100387.11;;;2.70;87.80
60611;BME280;46439;51.164;13.572;2023-02-26T11:35:35;100389.01;;;2.62;87.51
60611;BME280;46439;51.164;13.572;2023-02-26T11:38:03;100391.48;;;2.52;87.44
60611;BME280;46439;51.164;13.572;2023-02-26T11:40:37;100394.33;;;2.55;87.22
60611;BME280;46439;51.164;13.572;2023-02-26T11:43:11;100393.91;;;2.60;87.63
60611;BME280;46439;51.164;13.572;2023-02-26T11:45:44;100392.92;;;2.61;87.51
60611;BME280;46439;51.164;13.572;2023-02-26T11:48:17;100398.57;;;2.62;87.58
60611;BME280;46439;51.164;13.572;2023-02-26T11:50:53;100398.46;;;2.66;87.31
60611;BME280;46439;51.164;13.572;2023-02-26T11:53:28;100398.83;;;2.68;87.53
60611;BME280;46439;51.164;13.572;2023-02-26T11:56:02;100402.81;;;2.72;87.38
60611;BME280;46439;51.164;13.572;2023-02-26T11:58:36;100402.11;;;2.79;87.46
60611;BME280;46439;51.164;13.572;2023-02-26T12:01:07;100404.91;;;2.84;87.60
60611;BME280;46439;51.164;13.572;2023-02-26T12:03:39;100401.27;;;2.87;87.75
60611;BME280;46439;51.164;13.572;2023-02-26T12:06:16;100400.25;;;2.91;87.58
60611;BME280;46439;51.164;13.572;2023-02-26T12:08:46;100397.84;;;2.93;87.74
60611;BME280;46439;51.164;13.572;2023-02-26T12:11:34;100401.00;;;2.98;87.75
60611;BME280;46439;51.164;13.572;2023-02-26T12:14:36;100405.30;;;2.97;87.71
60611;BME280;46439;51.164;13.572;2023-02-26T12:17:17;100404.15;;;2.94;87.70
60611;BME280;46439;51.164;13.572;2023-02-26T12:19:53;100408.91;;;2.85;87.61
60611;BME280;46439;51.164;13.572;2023-02-26T12:22:40;100411.92;;;2.66;87.11
60611;BME280;46439;51.164;13.572;2023-02-26T12:25:24;100409.51;;;2.54;86.86
60611;BME280;46439;51.164;13.572;2023-02-26T12:28:12;100411.48;;;2.46;87.00
60611;BME280;46439;51.164;13.572;2023-02-26T12:31:07;100408.58;;;2.45;86.90
60611;BME280;46439;51.164;13.572;2023-02-26T12:33:47;100411.03;;;2.50;86.87
60611;BME280;46439;51.164;13.572;2023-02-26T12:36:36;100413.55;;;2.47;86.84
60611;BME280;46439;51.164;13.572;2023-02-26T12:39:19;100412.38;;;2.46;86.91
60611;BME280;46439;51.164;13.572;2023-02-26T12:42:01;100413.71;;;2.52;86.93
60611;BME280;46439;51.164;13.572;2023-02-26T12:44:49;100415.09;;;2.57;87.11
60611;BME280;46439;51.164;13.572;2023-02-26T12:47:33;100420.58;;;2.67;87.50
60611;BME280;46439;51.164;13.572;2023-02-26T12:50:19;100421.65;;;2.67;87.45
60611;BME280;46439;51.164;13.572;2023-02-26T12:53:13;100426.80;;;2.67;87.28
60611;BME280;46439;51.164;13.572;2023-02-26T12:55:53;100429.09;;;2.65;87.34
60611;BME280;46439;51.164;13.572;2023-02-26T12:58:34;100432.45;;;2.67;87.41
60611;BME280;46439;51.164;13.572;2023-02-26T13:01:12;100432.83;;;2.72;87.64
60611;BME280;46439;51.164;13.572;2023-02-26T13:04:10;100437.98;;;2.74;87.31
60611;BME280;46439;51.164;13.572;2023-02-26T13:06:59;100439.56;;;2.75;87.33
60611;BME280;46439;51.164;13.572;2023-02-26T13:09:43;100445.21;;;2.77;87.43
60611;BME280;46439;51.164;13.572;2023-02-26T13:12:25;100449.07;;;2.80;87.67
60611;BME280;46439;51.164;13.572;2023-02-26T13:15:09;100448.09;;;2.81;87.48
60611;BME280;46439;51.164;13.572;2023-02-26T13:17:49;100448.17;;;2.80;87.46
60611;BME280;46439;51.164;13.572;2023-02-26T13:20:23;100451.13;;;2.81;87.40
60611;BME280;46439;51.164;13.572;2023-02-26T13:22:55;100453.88;;;2.85;87.37
60611;BME280;46439;51.164;13.572;2023-02-26T13:25:36;100450.62;;;2.88;87.57
60611;BME280;46439;51.164;13.572;2023-02-26T13:28:15;100444.56;;;2.93;87.62
60611;BME280;46439;51.164;13.572;2023-02-26T13:30:51;100448.63;;;3.02;87.53
60611;BME280;46439;51.164;13.572;2023-02-26T13:33:27;100455.48;;;3.08;87.81